createdAt,value
2022-10-04T13:57:00.010Z,29.1
2022-10-04T13:58:01.894Z,29.1
2022-10-04T13:59:14.577Z,29.1
2022-10-04T14:00:16.508Z,29.2
2022-10-04T14:01:29.119Z,29.1
2022-10-04T14:02:40.780Z,29.0
2022-10-04T14:03:53.068Z,29.1
2022-10-04T14:04:54.963Z,29.1
2022-10-04T14:06:07.563Z,29.0
2022-10-04T14:07:19.183Z,28.7
2022-10-04T14:08:31.572Z,28.7
2022-10-04T14:09:34.459Z,28.9
2022-10-04T14:10:47.054Z,28.9
2022-10-04T14:12:03.235Z,28.5
2022-10-04T14:13:07.086Z,28.4
2022-10-04T14:14:18.752Z,28.5
2022-10-04T14:15:21.568Z,28.4
2022-10-04T14:16:33.275Z,28.5
2022-10-04T14:17:45.587Z,28.5
2022-10-04T14:18:47.462Z,28.5
2022-10-04T14:20:00.131Z,28.4
2022-10-04T14:21:16.615Z,28.4
2022-10-04T14:22:21.585Z,28.2
2022-10-04T14:23:33.346Z,28.1
2022-10-04T14:24:45.583Z,27.9
2022-10-04T14:25:47.380Z,28.0
2022-10-04T14:27:00.111Z,28.1
2022-10-04T14:28:12.819Z,28.1
2022-10-04T14:29:15.563Z,28.1
2022-10-04T14:30:27.234Z,28.1
2022-10-04T14:31:39.581Z,28.2
2022-10-04T14:32:51.335Z,28.3
2022-10-04T14:33:54.102Z,28.3
2022-10-04T14:35:05.790Z,28.4
2022-10-04T14:36:18.606Z,28.4
2022-10-04T14:37:30.350Z,28.3
2022-10-04T14:38:33.051Z,28.3
2022-10-04T14:39:44.749Z,28.3
2022-10-04T14:40:57.098Z,28.2
2022-10-04T14:42:08.814Z,28.3
2022-10-04T14:43:11.559Z,28.4
2022-10-04T14:44:23.290Z,28.4
2022-10-04T14:45:35.667Z,28.6
2022-10-04T14:46:47.452Z,28.6
2022-10-04T14:47:50.064Z,28.6
2022-10-04T14:49:01.800Z,28.7
2022-10-04T14:50:14.596Z,28.7
2022-10-04T14:51:26.356Z,28.7
2022-10-04T14:52:29.063Z,28.8
2022-10-04T14:53:40.840Z,28.8
2022-10-04T14:54:53.597Z,28.8
2022-10-04T14:55:55.494Z,28.9
2022-10-04T14:57:08.116Z,28.8
2022-10-04T14:58:19.891Z,28.8
2022-10-04T14:59:32.595Z,28.7
2022-10-04T15:00:35.538Z,28.8
2022-10-04T15:01:48.128Z,28.8
2022-10-04T15:03:05.164Z,29.0
2022-10-04T15:04:08.644Z,29.3
2022-10-04T15:05:20.533Z,29.4
2022-10-04T15:06:23.114Z,29.5
2022-10-04T15:07:34.924Z,29.5
2022-10-04T15:08:47.589Z,29.5
2022-10-04T15:09:59.409Z,29.7
2022-10-04T15:11:02.101Z,29.7
2022-10-04T15:12:32.435Z,29.9
